Time;durP1;ratioP1;P1;durP2;ratioP2;P2;SDS_P1;SDS_P2;PMS_P1;PMS_P2;Temp;Humidity;BMP_temperature;BMP_pressure;BME280_temperature;BME280_humidity;BME280_pressure;Samples;Min_cycle;Max_cycle;Signal;HPM_P1;HPM_P2
2022/07/29 00:01:00;;;;;;;25.10;23.37;;;18.60;99.90;;;;;;5031144;28;20202;-75
2022/07/29 00:03:26;;;;;;;15.13;13.60;;;18.60;99.90;;;;;;5030860;28;20185;-75
2022/07/29 00:05:52;;;;;;;14.20;12.90;;;18.60;99.90;;;;;;5029408;28;20206;-74
2022/07/29 00:08:19;;;;;;;15.13;14.13;;;18.60;99.90;;;;;;5030311;28;20182;-75
2022/07/29 00:10:46;;;;;;;15.03;13.77;;;18.60;99.90;;;;;;5029971;28;20186;-75
2022/07/29 00:13:12;;;;;;;78.77;74.17;;;18.60;99.90;;;;;;5029953;28;20224;-75
2022/07/29 00:15:38;;;;;;;69.57;65.47;;;18.60;99.90;;;;;;5031015;28;20179;-75
2022/07/29 00:18:04;;;;;;;29.80;28.00;;;18.60;99.90;;;;;;5030002;28;20186;-75
2022/07/29 00:20:30;;;;;;;32.67;30.67;;;18.50;99.90;;;;;;5030362;28;20581;-75
2022/07/29 00:22:56;;;;;;;28.67;26.77;;;18.50;99.90;;;;;;5030657;28;20206;-75
2022/07/29 00:25:22;;;;;;;40.70;38.47;;;18.50;99.90;;;;;;5030984;28;20214;-75
2022/07/29 00:27:47;;;;;;;48.40;45.50;;;18.50;99.90;;;;;;5028775;28;20214;-76
2022/07/29 00:30:14;;;;;;;35.80;33.70;;;18.50;99.90;;;;;;5029350;28;20186;-75
2022/07/29 00:32:40;;;;;;;200.80;189.97;;;18.50;99.90;;;;;;5029489;28;20635;-75
2022/07/29 00:37:51;;;;;;;200.00;188.87;;;18.50;99.90;;;;;;5010229;28;20230;-75
2022/07/29 00:40:17;;;;;;;250.43;236.43;;;18.50;99.90;;;;;;5009826;28;20203;-74
2022/07/29 00:42:47;;;;;;;318.63;300.25;;;18.50;99.90;;;;;;5010834;28;20200;-75
2022/07/29 00:45:14;;;;;;;406.60;381.40;;;18.50;99.90;;;;;;5028859;28;20183;-75
2022/07/29 00:47:40;;;;;;;222.27;209.57;;;18.50;99.90;;;;;;5030317;28;20209;-76
2022/07/29 00:50:08;;;;;;;285.33;268.70;;;18.50;99.90;;;;;;5030722;28;20876;-75
2022/07/29 00:52:36;;;;;;;39.73;37.33;;;18.60;99.90;;;;;;5030603;28;20289;-75
2022/07/29 00:55:04;;;;;;;37.50;34.93;;;18.60;99.90;;;;;;5024576;28;20191;-76
2022/07/29 00:57:30;;;;;;;43.33;40.83;;;18.60;99.90;;;;;;5028226;28;20640;-75
2022/07/29 00:59:56;;;;;;;251.77;236.57;;;18.60;99.90;;;;;;5030467;28;20283;-75
2022/07/29 01:02:22;;;;;;;240.37;225.73;;;18.60;99.90;;;;;;5033031;28;20285;-75
2022/07/29 01:04:48;;;;;;;303.33;285.50;;;18.60;99.90;;;;;;5032972;28;20182;-75
2022/07/29 01:07:15;;;;;;;355.55;333.55;;;18.60;99.90;;;;;;5032971;28;20178;-75
2022/07/29 01:09:42;;;;;;;151.45;142.75;;;18.70;99.90;;;;;;5034173;28;20190;-77
2022/07/29 01:12:08;;;;;;;175.20;165.50;;;18.70;99.90;;;;;;5040288;23;20224;-72
2022/07/29 01:14:35;;;;;;;91.60;86.60;;;18.70;99.90;;;;;;5008265;28;20570;-73
2022/07/29 01:17:06;;;;;;;26.70;24.63;;;18.70;99.90;;;;;;5003501;28;20199;-72
2022/07/29 01:20:09;;;;;;;34.05;31.92;;;18.60;99.90;;;;;;4993223;28;20259;-72
2022/07/29 01:23:00;;;;;;;163.73;154.35;;;18.60;99.90;;;;;;4994152;28;20199;-72
2022/07/29 01:25:53;;;;;;;156.60;147.77;;;18.60;99.90;;;;;;4974960;28;20181;-75
2022/07/29 01:28:57;;;;;;;165.43;155.90;;;18.60;99.90;;;;;;4992428;28;20211;-72
2022/07/29 01:31:35;;;;;;;79.13;74.70;;;18.50;99.90;;;;;;4973211;28;20227;-72
2022/07/29 01:34:05;;;;;;;239.20;225.27;;;18.40;99.90;;;;;;4983907;28;20184;-72
2022/07/29 01:36:34;;;;;;;255.90;240.97;;;18.40;99.90;;;;;;4994144;28;20191;-73
2022/07/29 01:39:13;;;;;;;229.00;215.73;;;18.30;99.90;;;;;;4992850;28;20180;-73
2022/07/29 01:42:20;;;;;;;225.87;213.13;;;18.20;99.90;;;;;;4993968;28;20212;-75
2022/07/29 01:45:16;;;;;;;182.97;172.90;;;18.20;99.90;;;;;;4965055;28;20199;-73
2022/07/29 01:48:05;;;;;;;163.53;154.57;;;18.10;99.90;;;;;;4972663;28;20188;-73
2022/07/29 01:50:38;;;;;;;149.37;141.10;;;18.10;99.90;;;;;;4974065;28;20571;-73
2022/07/29 01:53:07;;;;;;;143.17;135.33;;;18.00;99.90;;;;;;4975197;28;20216;-73
2022/07/29 01:55:38;;;;;;;151.80;143.27;;;18.00;99.90;;;;;;4992545;28;20219;-73
2022/07/29 01:58:06;;;;;;;146.87;138.63;;;18.00;99.90;;;;;;4991773;28;20180;-73
2022/07/29 02:00:34;;;;;;;150.43;142.03;;;17.90;99.90;;;;;;4993389;28;20282;-75
2022/07/29 02:03:05;;;;;;;131.10;123.27;;;17.80;99.90;;;;;;4993230;28;20766;-73
2022/07/29 02:05:34;;;;;;;138.60;131.00;;;17.80;99.90;;;;;;4990611;28;20220;-73
2022/07/29 02:08:01;;;;;;;166.50;157.70;;;17.80;99.90;;;;;;4991413;28;20176;-74
2022/07/29 02:10:31;;;;;;;147.03;138.73;;;17.70;99.90;;;;;;4992300;28;20192;-72
2022/07/29 02:12:58;;;;;;;132.07;124.77;;;17.70;99.90;;;;;;4992392;28;20265;-74
2022/07/29 02:15:28;;;;;;;131.70;124.57;;;17.70;99.90;;;;;;4992869;28;20184;-73
2022/07/29 02:17:59;;;;;;;188.87;178.13;;;17.60;99.90;;;;;;4993584;28;20184;-73
2022/07/29 02:20:27;;;;;;;124.20;117.00;;;17.60;99.90;;;;;;5004832;28;20322;-73
2022/07/29 02:22:54;;;;;;;91.30;85.97;;;17.60;99.90;;;;;;4993112;28;20209;-74
2022/07/29 02:25:22;;;;;;;153.40;144.97;;;17.50;99.90;;;;;;4992970;28;20184;-74
2022/07/29 02:27:51;;;;;;;163.47;154.53;;;17.50;99.90;;;;;;4992265;28;20186;-73
2022/07/29 02:30:19;;;;;;;149.10;141.03;;;17.50;99.90;;;;;;4992938;28;20222;-73
2022/07/29 02:32:46;;;;;;;145.20;137.17;;;17.40;99.90;;;;;;4991610;28;20207;-73
2022/07/29 02:35:15;;;;;;;97.90;92.03;;;17.40;99.90;;;;;;4992631;28;20195;-73
2022/07/29 02:37:44;;;;;;;82.87;78.20;;;17.30;99.90;;;;;;4990667;28;20234;-74
2022/07/29 02:40:15;;;;;;;73.03;68.77;;;17.30;99.90;;;;;;4993063;28;20201;-73
2022/07/29 02:42:43;;;;;;;132.83;125.43;;;17.20;99.90;;;;;;4992822;28;20215;-73
2022/07/29 02:45:10;;;;;;;99.83;93.97;;;17.20;99.90;;;;;;4992452;28;20223;-73
2022/07/29 02:47:49;;;;;;;74.80;70.53;;;17.10;99.90;;;;;;4990555;28;20268;-74
2022/07/29 02:50:32;;;;;;;140.00;132.50;;;17.00;99.90;;;;;;4991601;28;20552;-73
2022/07/29 02:53:16;;;;;;;62.43;58.87;;;16.90;99.90;;;;;;4992644;28;20260;-73
2022/07/29 02:56:07;;;;;;;44.80;42.10;;;16.90;99.90;;;;;;4993275;28;20184;-73
2022/07/29 02:58:53;;;;;;;43.73;40.77;;;16.90;99.90;;;;;;4993061;28;20816;-75
2022/07/29 03:01:28;;;;;;;33.73;31.33;;;16.90;99.90;;;;;;4992475;28;20263;-73
2022/07/29 03:03:55;;;;;;;33.30;30.93;;;16.90;99.90;;;;;;4990752;28;20581;-73
2022/07/29 03:06:24;;;;;;;40.53;38.20;;;16.90;99.90;;;;;;4992363;28;20187;-73
2022/07/29 03:08:52;;;;;;;42.00;39.40;;;16.80;99.90;;;;;;4990394;28;20180;-73
2022/07/29 03:11:18;;;;;;;40.70;38.13;;;16.80;99.90;;;;;;4992281;28;20181;-73
2022/07/29 03:13:45;;;;;;;43.30;40.80;;;16.80;99.90;;;;;;4990009;28;20200;-73
2022/07/29 03:16:12;;;;;;;42.73;40.07;;;16.80;99.90;;;;;;4991946;28;20184;-73
2022/07/29 03:18:38;;;;;;;26.53;24.83;;;16.80;99.90;;;;;;4991370;28;20550;-73
2022/07/29 03:21:04;;;;;;;26.70;24.70;;;16.80;99.90;;;;;;4992200;28;20212;-73
2022/07/29 03:23:30;;;;;;;36.20;33.47;;;16.90;99.90;;;;;;4991623;28;20204;-73
2022/07/29 03:25:57;;;;;;;95.53;90.30;;;16.70;99.90;;;;;;4991523;28;20556;-73
2022/07/29 03:28:23;;;;;;;39.23;36.87;;;16.60;99.90;;;;;;4989914;28;20192;-74
2022/07/29 03:30:49;;;;;;;29.77;27.87;;;16.50;99.90;;;;;;4991308;28;20176;-73
2022/07/29 03:33:15;;;;;;;26.83;24.77;;;16.60;99.90;;;;;;4991510;28;20262;-74
2022/07/29 03:35:42;;;;;;;23.00;20.70;;;16.70;99.90;;;;;;4991818;28;20187;-73
2022/07/29 03:38:07;;;;;;;27.93;26.13;;;16.70;99.90;;;;;;4989859;28;20195;-74
2022/07/29 03:40:55;;;;;;;47.10;44.37;;;16.70;99.90;;;;;;4991710;28;20204;-74
2022/07/29 03:43:24;;;;;;;36.93;34.57;;;16.70;99.90;;;;;;4991277;28;20551;-73
2022/07/29 03:45:52;;;;;;;53.93;50.97;;;16.60;99.90;;;;;;4990508;28;20180;-73
2022/07/29 03:48:21;;;;;;;146.27;138.60;;;16.60;99.90;;;;;;4990399;28;20653;-73
2022/07/29 03:50:49;;;;;;;72.77;68.67;;;16.60;99.90;;;;;;4991726;28;20223;-73
2022/07/29 03:53:15;;;;;;;34.70;32.63;;;16.50;99.90;;;;;;4991380;28;20204;-73
2022/07/29 03:55:44;;;;;;;28.20;26.30;;;16.50;99.90;;;;;;4992176;28;20180;-74
2022/07/29 03:58:13;;;;;;;36.83;34.63;;;16.60;99.90;;;;;;4989893;28;20184;-73
2022/07/29 04:00:40;;;;;;;67.50;63.70;;;16.60;99.90;;;;;;5002160;28;20645;-73
2022/07/29 04:03:06;;;;;;;48.97;45.90;;;16.50;99.90;;;;;;4976144;28;20205;-73
2022/07/29 04:05:31;;;;;;;25.77;24.10;;;16.50;99.90;;;;;;4987505;28;20181;-73
2022/07/29 04:07:57;;;;;;;22.93;21.33;;;16.50;99.90;;;;;;4971274;28;20181;-74
2022/07/29 04:10:23;;;;;;;49.43;45.93;;;16.50;99.90;;;;;;4972329;28;20188;-73
2022/07/29 04:12:49;;;;;;;69.03;64.77;;;16.50;99.90;;;;;;4971538;28;20721;-74
2022/07/29 04:15:15;;;;;;;19.60;18.23;;;16.50;99.90;;;;;;4974268;28;20191;-73
2022/07/29 04:17:41;;;;;;;26.43;24.83;;;16.50;99.90;;;;;;4990743;28;20188;-73
2022/07/29 04:20:07;;;;;;;67.10;63.03;;;16.50;99.90;;;;;;4990287;28;20208;-73
2022/07/29 04:22:33;;;;;;;80.27;75.63;;;16.50;99.90;;;;;;4991382;28;20200;-73
2022/07/29 04:24:59;;;;;;;112.57;106.80;;;16.60;99.90;;;;;;4990121;28;20521;-73
2022/07/29 04:27:25;;;;;;;40.03;37.57;;;16.60;99.90;;;;;;4990665;28;20208;-73
2022/07/29 04:29:51;;;;;;;21.00;19.00;;;16.60;99.90;;;;;;4991240;28;20291;-73
2022/07/29 04:32:17;;;;;;;15.47;14.07;;;16.70;99.90;;;;;;4991354;28;20720;-73
2022/07/29 04:34:45;;;;;;;78.83;73.60;;;16.70;99.90;;;;;;4991337;28;20191;-73
2022/07/29 04:37:11;;;;;;;107.50;101.07;;;16.70;99.90;;;;;;4994269;28;20219;-73
2022/07/29 04:39:37;;;;;;;48.27;45.33;;;16.70;99.90;;;;;;4994012;28;20188;-73
2022/07/29 04:42:03;;;;;;;26.07;24.37;;;16.70;99.90;;;;;;4995226;28;20695;-73
2022/07/29 04:44:29;;;;;;;260.90;246.77;;;16.80;99.90;;;;;;4994984;28;20176;-73
2022/07/29 04:46:56;;;;;;;303.00;286.50;;;16.80;99.90;;;;;;4993306;28;20719;-74
2022/07/29 04:49:22;;;;;;;156.77;147.90;;;16.90;99.90;;;;;;4995006;28;20216;-73
2022/07/29 04:51:48;;;;;;;97.77;92.27;;;16.90;99.90;;;;;;4994915;28;20231;-73
2022/07/29 04:54:14;;;;;;;63.17;59.20;;;17.00;99.90;;;;;;4993991;28;20231;-73
2022/07/29 04:56:41;;;;;;;53.47;50.17;;;17.10;99.90;;;;;;4993705;28;20177;-74
2022/07/29 04:59:07;;;;;;;35.13;33.00;;;17.10;99.90;;;;;;4994199;28;20268;-73
2022/07/29 05:01:33;;;;;;;19.43;17.97;;;17.20;99.90;;;;;;4994492;28;20303;-73
2022/07/29 05:03:59;;;;;;;25.03;23.33;;;17.20;99.90;;;;;;4994951;28;20183;-73
2022/07/29 05:06:25;;;;;;;24.87;22.80;;;17.20;99.90;;;;;;4994933;28;20184;-73
2022/07/29 05:08:51;;;;;;;32.53;30.20;;;17.10;99.90;;;;;;4994419;28;20181;-73
2022/07/29 05:11:17;;;;;;;104.10;96.97;;;17.10;99.90;;;;;;4995713;28;20372;-73
2022/07/29 05:13:43;;;;;;;132.13;123.77;;;17.10;99.90;;;;;;4992910;28;20220;-73
2022/07/29 05:16:09;;;;;;;30.40;27.47;;;17.10;99.90;;;;;;4995193;28;20188;-73
2022/07/29 05:18:35;;;;;;;53.03;48.43;;;17.10;99.90;;;;;;4994147;28;20727;-73
2022/07/29 05:21:01;;;;;;;36.03;32.33;;;17.10;99.90;;;;;;4993319;28;20312;-73
2022/07/29 05:23:27;;;;;;;26.80;22.63;;;17.20;99.90;;;;;;4994521;28;20712;-73
2022/07/29 05:25:52;;;;;;;35.03;30.63;;;17.30;99.90;;;;;;4993125;28;20660;-73
2022/07/29 05:28:18;;;;;;;34.10;23.07;;;17.40;99.90;;;;;;4992376;28;20180;-73
2022/07/29 05:30:45;;;;;;;88.93;82.93;;;17.60;99.90;;;;;;4992968;28;20180;-74
2022/07/29 05:33:11;;;;;;;72.20;67.13;;;17.80;99.90;;;;;;5010970;28;20215;-74
2022/07/29 05:35:37;;;;;;;27.50;17.97;;;17.90;99.90;;;;;;5012697;28;20190;-74
2022/07/29 05:38:03;;;;;;;94.97;88.50;;;18.00;99.90;;;;;;5008095;28;20318;-74
2022/07/29 05:40:30;;;;;;;133.60;124.90;;;18.10;99.90;;;;;;4994203;28;20204;-74
2022/07/29 05:42:56;;;;;;;339.77;319.60;;;18.20;99.90;;;;;;4994725;28;20193;-74
2022/07/29 05:45:24;;;;;;;360.90;339.47;;;18.30;99.90;;;;;;4995325;28;20192;-74
2022/07/29 05:47:49;;;;;;;189.63;178.73;;;18.40;99.90;;;;;;4992788;28;20288;-75
2022/07/29 05:50:15;;;;;;;32.10;30.03;;;18.50;99.90;;;;;;4994115;28;20279;-75
2022/07/29 05:52:41;;;;;;;63.43;59.87;;;18.50;99.90;;;;;;4993873;28;20239;-75
2022/07/29 05:55:07;;;;;;;37.37;34.57;;;18.70;99.90;;;;;;4994268;28;20243;-74
2022/07/29 05:57:33;;;;;;;49.77;46.37;;;18.90;99.90;;;;;;4992873;28;20680;-73
2022/07/29 05:59:59;;;;;;;19.73;18.30;;;19.10;99.90;;;;;;4993579;28;20212;-74
2022/07/29 06:02:25;;;;;;;36.97;34.33;;;19.10;99.90;;;;;;4992342;28;20283;-74
2022/07/29 06:04:51;;;;;;;15.88;14.57;;;19.30;99.90;;;;;;4992382;28;20737;-74
2022/07/29 06:07:17;;;;;;;68.30;64.65;;;19.70;99.90;;;;;;4991911;28;20184;-74
2022/07/29 06:09:44;;;;;;;109.25;103.38;;;20.40;99.90;;;;;;4993740;28;20274;-74
2022/07/29 06:12:10;;;;;;;39.88;37.67;;;21.00;99.90;;;;;;4992365;28;20689;-74
2022/07/29 06:14:37;;;;;;;28.02;26.17;;;21.30;99.90;;;;;;4993454;28;20268;-74
2022/07/29 06:17:05;;;;;;;13.90;13.05;;;21.20;99.90;;;;;;4991756;28;20181;-74
2022/07/29 06:19:33;;;;;;;10.63;9.75;;;21.00;99.90;;;;;;4993406;28;20764;-74
2022/07/29 06:21:59;;;;;;;13.88;13.10;;;21.10;99.90;;;;;;4993350;28;20292;-74
2022/07/29 06:24:25;;;;;;;44.85;42.55;;;21.10;99.90;;;;;;4980292;28;20272;-74
2022/07/29 06:26:50;;;;;;;33.33;31.48;;;21.50;99.90;;;;;;4990543;28;20180;-75
2022/07/29 06:29:16;;;;;;;38.70;36.55;;;22.10;99.90;;;;;;4993009;28;20632;-74
2022/07/29 06:31:42;;;;;;;80.78;76.57;;;22.00;99.90;;;;;;4992226;28;20204;-74
2022/07/29 06:34:08;;;;;;;45.78;43.33;;;21.70;99.90;;;;;;4992929;28;20191;-74
2022/07/29 06:36:36;;;;;;;59.95;56.90;;;21.80;99.90;;;;;;4992897;28;20188;-74
2022/07/29 06:39:06;;;;;;;50.63;47.90;;;22.10;99.90;;;;;;4991174;28;20238;-74
2022/07/29 06:41:33;;;;;;;151.77;144.13;;;22.20;99.90;;;;;;4973272;28;20216;-74
2022/07/29 06:43:59;;;;;;;145.38;137.98;;;22.60;99.90;;;;;;4973327;28;20182;-74
2022/07/29 06:46:25;;;;;;;29.17;27.65;;;23.30;99.90;;;;;;4972692;28;20538;-74
2022/07/29 06:48:51;;;;;;;6.75;6.20;;;23.90;99.90;;;;;;4972449;28;20177;-74
2022/07/29 06:51:18;;;;;;;7.90;7.20;;;24.30;99.90;;;;;;4973499;28;20196;-73
2022/07/29 06:53:43;;;;;;;9.90;8.93;;;24.60;99.90;;;;;;4975572;28;20196;-74
2022/07/29 06:56:09;;;;;;;11.35;10.52;;;24.60;99.90;;;;;;4991455;28;20746;-74
2022/07/29 06:58:35;;;;;;;25.55;24.05;;;24.90;99.90;;;;;;4989873;28;20180;-75
2022/07/29 07:01:04;;;;;;;12.45;11.45;;;25.20;99.90;;;;;;4971938;28;20213;-75
2022/07/29 07:03:30;;;;;;;16.50;15.48;;;25.70;99.90;;;;;;4971572;28;20193;-74
2022/07/29 07:05:57;;;;;;;21.60;14.05;;;25.90;99.90;;;;;;4973199;28;20674;-74
2022/07/29 07:08:23;;;;;;;15.63;14.82;;;25.90;99.90;;;;;;4980175;28;20257;-74
2022/07/29 07:10:50;;;;;;;15.98;14.93;;;26.40;99.90;;;;;;4991552;28;20188;-74
2022/07/29 07:13:17;;;;;;;21.50;20.33;;;26.40;99.90;;;;;;5020794;23;20227;-73
2022/07/29 07:15:44;;;;;;;19.15;17.60;;;26.00;99.90;;;;;;4994749;28;20187;-75
2022/07/29 07:18:11;;;;;;;24.33;22.77;;;26.00;99.90;;;;;;5011787;28;20660;-74
2022/07/29 07:20:37;;;;;;;15.88;15.00;;;26.00;99.90;;;;;;5012230;28;20294;-74
2022/07/29 07:23:04;;;;;;;11.38;10.70;;;26.00;99.90;;;;;;5019763;28;20245;-74
2022/07/29 07:25:30;;;;;;;23.08;21.80;;;25.90;99.90;;;;;;5012554;28;20743;-73
2022/07/29 07:27:56;;;;;;;11.68;10.98;;;25.30;99.90;;;;;;5013813;28;20593;-74
2022/07/29 07:30:22;;;;;;;43.03;40.92;;;24.90;99.90;;;;;;5012025;28;20187;-74
2022/07/29 07:32:48;;;;;;;47.33;44.92;;;24.60;99.90;;;;;;4994366;28;20310;-74
2022/07/29 07:35:14;;;;;;;14.38;13.43;;;24.30;99.90;;;;;;5011555;28;20715;-74
2022/07/29 07:37:40;;;;;;;11.18;10.57;;;24.00;99.90;;;;;;5010681;28;20544;-74
2022/07/29 07:40:09;;;;;;;12.27;11.57;;;23.90;99.90;;;;;;4994221;28;20234;-74
2022/07/29 07:42:35;;;;;;;11.63;11.02;;;24.00;99.90;;;;;;4994007;28;20191;-74
2022/07/29 07:45:01;;;;;;;11.73;10.90;;;23.90;99.90;;;;;;5011530;28;20222;-74
2022/07/29 07:47:27;;;;;;;10.65;9.88;;;24.50;99.90;;;;;;5009696;28;20210;-74
2022/07/29 07:49:53;;;;;;;25.92;24.30;;;25.50;99.90;;;;;;5010994;28;20660;-75
2022/07/29 07:52:20;;;;;;;12.60;11.95;;;25.80;99.90;;;;;;5011315;28;20188;-74
2022/07/29 07:54:46;;;;;;;24.42;22.77;;;25.70;99.90;;;;;;5011360;28;20660;-74
2022/07/29 07:57:13;;;;;;;28.17;26.73;;;25.50;99.90;;;;;;5010822;28;20270;-74
2022/07/29 07:59:41;;;;;;;31.25;29.65;;;25.40;99.90;;;;;;5011168;28;20264;-74
2022/07/29 08:02:07;;;;;;;19.75;18.58;;;25.40;99.90;;;;;;5011157;28;20182;-74
2022/07/29 08:04:34;;;;;;;11.23;10.63;;;25.40;99.90;;;;;;5010763;28;20184;-74
2022/07/29 08:07:00;;;;;;;17.20;16.30;;;25.20;99.90;;;;;;5011229;28;20239;-73
2022/07/29 08:09:28;;;;;;;20.88;19.88;;;24.90;99.90;;;;;;4993849;28;20186;-73
2022/07/29 08:11:54;;;;;;;23.30;21.90;;;25.20;99.90;;;;;;5010434;28;20275;-72
2022/07/29 08:14:20;;;;;;;14.50;13.77;;;25.90;99.90;;;;;;4998772;28;20693;-72
2022/07/29 08:16:46;;;;;;;19.48;18.38;;;26.50;99.90;;;;;;4992639;28;20188;-74
2022/07/29 08:19:11;;;;;;;21.50;20.40;;;27.10;99.90;;;;;;4987770;28;20645;-73
2022/07/29 08:21:38;;;;;;;5.88;5.53;;;27.70;99.90;;;;;;5010065;28;20237;-75
2022/07/29 08:26:50;;;;;;;6.30;6.00;;;28.80;99.90;;;;;;5010212;28;20188;-74
2022/07/29 08:29:16;;;;;;;6.93;6.43;;;29.40;99.90;;;;;;4992634;28;20194;-75
2022/07/29 08:31:42;;;;;;;6.88;6.47;;;29.80;99.90;;;;;;5010800;28;20183;-75
2022/07/29 08:34:08;;;;;;;7.35;6.95;;;30.20;99.90;;;;;;5010687;28;20268;-74
2022/07/29 08:36:35;;;;;;;7.88;7.43;;;30.70;99.90;;;;;;5010588;28;20187;-76
2022/07/29 08:39:02;;;;;;;7.72;7.32;;;30.50;99.90;;;;;;5010101;28;20660;-75
2022/07/29 08:41:29;;;;;;;8.25;7.70;;;30.20;99.90;;;;;;4993671;28;20246;-75
2022/07/29 08:43:55;;;;;;;6.45;6.05;;;30.00;99.90;;;;;;5010675;28;20195;-76
2022/07/29 08:46:22;;;;;;;10.93;9.93;;;30.10;99.70;;;;;;5011557;28;20191;-75
2022/07/29 08:48:48;;;;;;;9.30;8.63;;;30.00;99.90;;;;;;4992082;28;20532;-74
2022/07/29 08:51:17;;;;;;;8.07;7.57;;;30.50;99.90;;;;;;5009407;28;20180;-74
2022/07/29 08:53:44;;;;;;;9.70;9.05;;;30.80;99.90;;;;;;4993043;28;20848;-73
2022/07/29 08:56:18;;;;;;;6.45;5.30;;;30.80;99.90;;;;;;5010659;28;20183;-72
2022/07/29 08:58:46;;;;;;;11.10;10.30;;;30.80;99.90;;;;;;4991509;28;20547;-73
2022/07/29 09:01:16;;;;;;;7.60;7.20;;;30.70;99.90;;;;;;5013215;28;20199;-74
2022/07/29 09:03:44;;;;;;;17.20;16.30;;;30.40;98.50;;;;;;5010556;28;20625;-74
2022/07/29 09:06:14;;;;;;;13.02;12.13;;;30.30;99.80;;;;;;5009892;28;20238;-74
2022/07/29 09:08:41;;;;;;;18.38;17.40;;;30.70;99.10;;;;;;4992008;28;20218;-74
2022/07/29 09:11:07;;;;;;;20.13;19.02;;;30.90;98.60;;;;;;5010832;28;20238;-74
2022/07/29 09:13:33;;;;;;;28.30;26.75;;;31.00;98.50;;;;;;4991987;28;20222;-74
2022/07/29 09:15:59;;;;;;;11.45;10.82;;;31.00;98.10;;;;;;5010515;28;20192;-74
2022/07/29 09:18:45;;;;;;;9.30;8.77;;;31.20;95.70;;;;;;5009921;28;20306;-74
2022/07/29 09:24:06;;;;;;;5.78;5.38;;;32.00;95.20;;;;;;5013294;28;20204;-74
2022/07/29 09:26:35;;;;;;;14.88;6.10;;;32.10;96.10;;;;;;5014025;28;20650;-75
2022/07/29 09:29:09;;;;;;;5.55;5.25;;;32.10;94.50;;;;;;4994323;28;20184;-74
2022/07/29 09:31:37;;;;;;;7.30;6.80;;;31.50;95.60;;;;;;5013487;28;20226;-75
2022/07/29 09:34:04;;;;;;;7.97;7.57;;;31.60;95.70;;;;;;5013122;28;20203;-75
2022/07/29 09:36:30;;;;;;;7.43;6.68;;;31.90;95.60;;;;;;5013231;28;20186;-75
2022/07/29 09:39:00;;;;;;;6.95;6.22;;;32.30;94.50;;;;;;4995748;28;20180;-75
2022/07/29 09:41:27;;;;;;;14.35;13.40;;;32.30;95.00;;;;;;4995855;28;20223;-75
2022/07/29 09:43:54;;;;;;;7.53;7.03;;;31.80;93.50;;;;;;4995484;28;20196;-73
2022/07/29 09:46:20;;;;;;;5.32;5.00;;;31.50;94.30;;;;;;5013205;28;20378;-73
2022/07/29 09:49:12;;;;;;;6.63;6.10;;;31.20;94.80;;;;;;5013039;28;20595;-73
2022/07/29 09:51:39;;;;;;;5.93;5.53;;;31.10;95.20;;;;;;5012061;28;20188;-74
2022/07/29 09:54:25;;;;;;;16.83;15.82;;;31.60;94.50;;;;;;4995770;28;20199;-72
2022/07/29 09:56:52;;;;;;;19.60;18.52;;;32.10;92.10;;;;;;4994321;28;20214;-73
2022/07/29 09:59:20;;;;;;;20.00;18.65;;;32.20;92.60;;;;;;4995339;28;20187;-73
2022/07/29 10:01:46;;;;;;;20.48;19.25;;;32.30;91.10;;;;;;4995641;28;20219;-73
2022/07/29 10:04:12;;;;;;;14.43;13.70;;;32.70;90.20;;;;;;4994986;28;20195;-73
2022/07/29 10:07:01;;;;;;;29.75;28.13;;;32.90;88.40;;;;;;5012970;28;20183;-73
2022/07/29 10:09:27;;;;;;;35.97;34.13;;;33.00;90.70;;;;;;4995626;28;20262;-73
2022/07/29 10:12:06;;;;;;;21.10;19.90;;;33.30;91.40;;;;;;5012178;28;20253;-75
2022/07/29 10:14:33;;;;;;;12.00;11.00;;;33.90;85.30;;;;;;4995179;28;20274;-74
2022/07/29 10:17:00;;;;;;;6.82;6.38;;;34.40;87.50;;;;;;4994486;28;20190;-73
2022/07/29 10:19:29;;;;;;;7.53;7.00;;;34.40;85.00;;;;;;5012139;28;20256;-74
2022/07/29 10:21:57;;;;;;;18.33;17.25;;;34.60;83.70;;;;;;4995307;28;20692;-74
2022/07/29 10:24:26;;;;;;;7.85;7.25;;;34.00;79.80;;;;;;4995390;28;20806;-74
2022/07/29 10:26:55;;;;;;;8.20;7.55;;;33.60;82.30;;;;;;5011048;28;20736;-74
2022/07/29 10:29:21;;;;;;;7.15;6.45;;;32.70;81.60;;;;;;5011897;28;20187;-74
2022/07/29 10:32:13;;;;;;;8.40;7.70;;;32.30;82.30;;;;;;5012296;28;20567;-74
2022/07/29 10:35:00;;;;;;;9.75;9.07;;;32.30;83.10;;;;;;5011534;28;20186;-74
2022/07/29 10:37:54;;;;;;;15.30;14.40;;;31.80;82.50;;;;;;5015327;28;20281;-73
2022/07/29 10:43:37;;;;;;;22.73;21.45;;;31.80;83.90;;;;;;5012437;28;20691;-71
2022/07/29 10:46:04;;;;;;;15.50;13.95;;;32.10;84.80;;;;;;5012283;28;20556;-71
2022/07/29 10:48:30;;;;;;;11.80;11.00;;;32.60;80.40;;;;;;5010894;28;20176;-71
2022/07/29 10:51:04;;;;;;;8.07;7.47;;;33.20;83.10;;;;;;5011363;28;20310;-71
2022/07/29 10:53:49;;;;;;;14.38;13.50;;;33.10;80.90;;;;;;5012565;28;20203;-72
2022/07/29 10:56:30;;;;;;;8.18;7.50;;;32.80;82.10;;;;;;4993329;28;20211;-72
2022/07/29 10:59:20;;;;;;;8.07;6.03;;;32.70;80.50;;;;;;5011682;28;20556;-72
2022/07/29 11:01:51;;;;;;;6.78;6.32;;;32.80;82.60;;;;;;4997955;28;20302;-84
2022/07/29 11:04:42;;;;;;;6.78;6.20;;;32.60;81.00;;;;;;5022303;28;20208;-85
2022/07/29 11:07:09;;;;;;;6.32;5.93;;;32.20;80.70;;;;;;5020139;28;20191;-84
2022/07/29 11:09:35;;;;;;;8.07;7.50;;;31.70;82.00;;;;;;5002810;28;20187;-84
2022/07/29 11:12:01;;;;;;;11.88;10.98;;;31.30;82.20;;;;;;5008675;28;20191;-83
2022/07/29 11:14:52;;;;;;;21.40;20.10;;;31.10;81.50;;;;;;5019211;28;20207;-82
2022/07/29 11:17:18;;;;;;;17.83;16.67;;;30.70;85.30;;;;;;5051927;28;20190;-85
2022/07/29 11:19:44;;;;;;;18.42;17.27;;;30.70;83.10;;;;;;5041842;28;20238;-84
2022/07/29 11:22:11;;;;;;;36.85;34.58;;;30.50;83.80;;;;;;5004749;28;20184;-83
2022/07/29 11:24:37;;;;;;;25.60;24.10;;;30.20;88.00;;;;;;5023630;28;20247;-84
2022/07/29 11:27:12;;;;;;;11.63;10.65;;;29.70;89.40;;;;;;5003886;28;20199;-85
2022/07/29 11:29:48;;;;;;;10.20;9.38;;;29.20;90.10;;;;;;5007155;28;20193;-84
2022/07/29 11:32:17;;;;;;;18.27;17.08;;;28.60;91.20;;;;;;5011627;28;20203;-85
2022/07/29 11:34:43;;;;;;;60.22;56.72;;;28.10;91.60;;;;;;5011116;28;20188;-85
2022/07/29 11:37:14;;;;;;;101.57;96.28;;;27.70;92.10;;;;;;5004164;28;20187;-84
2022/07/29 11:39:43;;;;;;;20.58;19.08;;;27.30;92.60;;;;;;5005203;28;20214;-86
2022/07/29 11:42:23;;;;;;;8.75;8.20;;;26.80;93.20;;;;;;5003291;28;20198;-85
2022/07/29 11:44:58;;;;;;;9.40;8.85;;;26.50;93.70;;;;;;5006752;28;20195;-85
2022/07/29 11:47:28;;;;;;;17.90;16.90;;;26.20;94.20;;;;;;5005739;28;20186;-86
2022/07/29 11:49:56;;;;;;;33.67;31.45;;;26.00;94.90;;;;;;5031888;28;20230;-86
2022/07/29 11:52:31;;;;;;;130.13;123.57;;;25.80;95.10;;;;;;5007859;28;20187;-85
2022/07/29 11:55:00;;;;;;;40.63;38.17;;;25.60;96.20;;;;;;5020965;28;20194;-85
2022/07/29 11:57:27;;;;;;;15.95;14.50;;;25.30;98.70;;;;;;5016763;28;20827;-85
2022/07/29 11:59:55;;;;;;;10.43;8.43;;;24.60;99.90;;;;;;5005118;28;20210;-85
2022/07/29 12:02:20;;;;;;;33.05;30.65;;;23.90;99.90;;;;;;5003406;28;20175;-86
2022/07/29 12:04:55;;;;;;;17.05;15.85;;;23.40;99.90;;;;;;5003906;28;20183;-85
2022/07/29 12:07:29;;;;;;;23.13;21.38;;;23.00;99.90;;;;;;5021142;28;20226;-85
2022/07/29 12:09:56;;;;;;;74.97;70.82;;;22.80;99.90;;;;;;5002946;28;20203;-85
2022/07/29 12:12:22;;;;;;;50.92;48.08;;;22.60;99.90;;;;;;5004415;28;20191;-85
2022/07/29 12:14:48;;;;;;;33.95;31.98;;;22.60;99.90;;;;;;5005283;28;20184;-84
2022/07/29 12:17:31;;;;;;;216.75;204.65;;;22.50;99.90;;;;;;5020084;28;20179;-84
2022/07/29 12:20:00;;;;;;;278.90;263.80;;;22.40;99.90;;;;;;5005707;28;20180;-84
2022/07/29 12:22:27;;;;;;;199.18;188.35;;;22.40;99.90;;;;;;5007901;28;21626;-84
2022/07/29 12:24:54;;;;;;;192.07;180.38;;;22.30;99.90;;;;;;5006775;28;20176;-85
2022/07/29 12:27:20;;;;;;;546.30;508.95;;;22.30;99.90;;;;;;5008287;28;20243;-87
2022/07/29 12:30:03;;;;;;;440.30;415.05;;;22.20;99.90;;;;;;5021399;28;20172;-87
2022/07/29 12:32:55;;;;;;;233.63;220.55;;;22.10;99.90;;;;;;5019994;28;20214;-86
2022/07/29 12:35:21;;;;;;;201.50;190.63;;;22.20;99.90;;;;;;5000682;28;20187;-86
2022/07/29 12:37:49;;;;;;;186.98;176.60;;;22.20;99.90;;;;;;5019089;28;20197;-85
2022/07/29 12:40:16;;;;;;;220.32;208.38;;;22.20;99.90;;;;;;5001629;28;20757;-86
2022/07/29 12:43:05;;;;;;;159.75;150.85;;;22.50;99.90;;;;;;5018750;28;20207;-86
2022/07/29 12:45:31;;;;;;;164.55;155.38;;;22.60;99.90;;;;;;5011790;28;20188;-85
2022/07/29 12:47:57;;;;;;;135.07;127.57;;;22.70;99.90;;;;;;5011652;28;20176;-85